Hlavní strana
METAR-TAF:

METAR-TAF

Letiště :

Providencia Island, Kolumbie

zeměpisná šířka: 13-22N, zeměpisná délka: 081-21W, výška: 6 m

Aktuální stav počasí

Zpráva byla vytvořena před 1 hodinou a 2 minutami, v 22:00 UTC
vítr z různých směrů 6 kt
Teplota 28°C
Vlhkost vzduchu 84%
Tlak 1011 hPa
Viditelnost 10 km a více
Polojasno ve výšce 1700 ft

METAR: SKPV 152200Z VRB06KT 9999 SCT017 28/25 A2984

Čas: 18:02 (23:02 UTC)


TAF: chybějící

Stav a předpovědi počasí z více než 4 000 letišť (zprávy METAR a TAF).

Červené a žluté tečky na mapě představují dostupné meteorologické stanice.

Když kurzor umístíte na tečku, zobrazí se název stanice.

Pak kliknutím zobrazíte stav a předpověď počasí.

Chcete-li změnit mapu, kliknutím na zelené tlačítko se znaménkem +mapu přiblížíte, kliknutím na zelené tlačítko se znaménkem – mapu oddálíte a kliknutím na zelené šipky přejdete na sousední mapy.


METAR-TAF: